Woxall, Pennsylvania
Current Conditions -  °F | °C
As of 8:54 PM on Wednesday 22 Oct 2014 (Local Time) from KPTW Reporting Station
Moderate Rain Moderate Rain  
Wind Chill: 51°   Ceiling: 5500
Heat Index: 51°   Visibility: 6mi
Dew Point: 48°   Wind: 14mph
Humidity: 89%   Direction: 330°NNW
Pressure: 29.88"   Gusts: NA
Location:  40.31°N, 75.45°W
Report Text: KPTW 230054Z AUTO 33012KT 6SM RA BR FEW041 BKN055 OVC070 11/09 A2988 RMK AO2 SLP116 P0007 T01060089
Loading
Personal Weather Stations






























Interactive Weather Map
Tropical Storm Tracking
New forecast layout! Learn more

10-Day Weather Forecast

Advertisements
Track Severe Weather on mobile